AirNav   Pilot Hours Calculator
 
 456 users online  

KMGY Dayton-Wright Brothers Airport
Dayton, Ohio, USA

GOING TO DAYTON?


FAA INFORMATION EFFECTIVE 15 AUGUST 2019

Location

FAA Identifier: MGY
Lat/Long: 39-35-20.3000N 084-13-29.5000W
39-35.338333N 084-13.491667W
39.5889722,-84.2248611
(estimated)
Elevation: 956.6 ft. / 291.6 m (surveyed)
Variation: 04W (1995)
From city: 10 miles S of DAYTON, OH
Time zone: UTC -4 (UTC -5 during Standard Time)
Zip code: 45342

Airport Operations

Airport use: Open to the public
Activation date: 12/1957
Control tower: no
ARTCC: INDIANAPOLIS CENTER
FSS: DAYTON FLIGHT SERVICE STATION
NOTAMs facility: MGY (NOTAM-D service available)
Attendance: 0800-2100
Wind indicator: lighted
Segmented circle: no
Lights: ACTVT MALS RY 20; MIRL RY 02/20 - CTAF.
Beacon: white-green (lighted land airport)
Operates sunset to sunrise.

Airport Communications

CTAF/UNICOM: 122.8
WX ASOS: 118.375 (937-885-2171)
COLUMBUS APPROACH: 118.85
COLUMBUS DEPARTURE: 118.85
CLEARANCE DELIVERY: 119.4
CLASS C: 118.85
IC: 118.85
WX AWOS-3 at I68 (8 nm S): 120.55 (513-934-5500)
WX AWOS-3 at MWO (9 nm SW): 120.025 (513-422-3505)
WX AWOS-3 at I19 (12 nm NE): 118.525 (937-372-4668)
WX AWOS-3 at I66 (18 nm E): 124.175 (937-382-1376)
WX ASOS at DAY (19 nm N): PHONE 937-415-6819
WX ASOS at HAO (19 nm SW): 121.425 (513-863-6137)

Nearby radio navigation aids

VOR radial/distance  VOR name  Freq  Var
MXQr300/21.8MIDWEST VOR/DME112.9004W
SGHr234/23.0SPRINGFIELD VOR/DME113.2004W
DQNr164/26.8DAYTON VOR/DME114.5001W

 
NDB name  Hdg/Dist  Freq  Var  ID
ONIDA086/4.622304WMW -- .--
HOOK FIELD066/11.623904WHKF .... -.- ..-.
CINCINNATI016/26.333504WLUK .-.. ..- -.-
CLARK COUNTY234/26.734104WCCJ -.-. -.-. .---
SPORTYS003/30.724504WPWF .--. .-- ..-.
COURT HOUSE275/38.541406WCSS -.-. ... ...

Airport Services

Fuel available: 100LL JET-A JET-A+
Parking: hangars and tiedowns
Airframe service: MAJOR
Powerplant service: MAJOR
Bottled oxygen: HIGH/LOW
Bulk oxygen: HIGH

Runway Information

Runway 2/20

Dimensions: 5000 x 100 ft. / 1524 x 30 m
Surface: asphalt/grooved, in good condition
Weight bearing capacity: 
Single wheel: 50.0
Double wheel: 60.0
Runway edge lights: medium intensity
Gradient: N
RUNWAY 2  RUNWAY 20
Latitude: 39-34.956500N39-35.718747N
Longitude: 084-13.692647W084-13.289923W
Elevation: 936.2 ft.956.6 ft.
Traffic pattern: leftleft
Runway heading: 026 magnetic, 022 true206 magnetic, 202 true
Displaced threshold: no590 ft.
Markings: nonprecision, in good conditionnonprecision, in good condition
Visual slope indicator: 2-light PAPI on left (3.00 degrees glide path)4-box VASI on left (3.00 degrees glide path)
Approach lights: MALS: 1,400 foot medium intensity approach lighting system
Runway end identifier lights: no
Touchdown point: yes, no lightsyes, no lights
Instrument approach: LOC/DME
Obstructions: 86 ft. trees, 2900 ft. from runway, 350 ft. left of centerline, 31:1 slope to clear21 ft. road, 490 ft. from runway, 288 ft. right of centerline, 13:1 slope to clear
RY 20 APCH RATIO 24:1 TO DSPLCD THLD DUE TO 15 FT ACFT 275 FT R 350 FT FM THLD.

Airport Ownership and Management from official FAA records

Ownership: Publicly-owned
Owner: CITY OF DAYTON
3600 TERMINAL DR. SUITE 300
VANDALIA, OH 45377
Phone 937-885-4121
Manager: BRANDON ELLIS
10550 N SPRINGBUROUGH PIKE
MIAMISBURG, OH 45342
Phone 937-454-8230

Airport Operational Statistics

Aircraft based on the field: 67
Single engine airplanes: 49
Multi engine airplanes: 10
Jet airplanes: 6
Helicopters: 2
    
Aircraft operations: avg 244/day *
48% local general aviation
45% transient general aviation
7% air taxi
<1% military
* for 12-month period ending 02 September 2016

Additional Remarks

RWYS GROSS WEIGHT PER ARPT MGR.
TWY LIGHTS ON SS-SR.
BIRDS & DEER ON & INVOF ARPT.
SURFACE CONDITIONS UNMNT 2030-1200Z++ WKDAYS/ ALL DAY WKENDS/HOL.
FULL POWER MAINTENANCE RUNUPS PROHIBITED IN THE HOLDING APRON AT THE NORTHWEST CORNER OF TWY A BETWEEN THE HOURS OF 0800L TO 1700L MONDAY THRU FRIDAY.

Instrument Procedures

NOTE: All procedures below are presented as PDF files. If you need a reader for these files, you should download the free Adobe Reader.

NOT FOR NAVIGATION. Please procure official charts for flight.
FAA instrument procedures published for use from 15 August 2019 at 0901Z to 12 September 2019 at 0900Z.

 
STARs - Standard Terminal Arrivals
DANEI TWO   download (150KB)
 
IAPs - Instrument Approach Procedures
RNAV (GPS) RWY 02 **CHANGED**   download (211KB)
RNAV (GPS) RWY 20 **CHANGED**   download (215KB)
LOC/DME RWY 20 **CHANGED**   download (222KB)
NDB-A **CHANGED**   download (159KB)
NOTE: Special Alternate Minimums apply   download (16KB)
NOTE: Special Take-Off Minimums/Departure Procedures apply   download (239KB)

Other nearby airports with instrument procedures:

I68 - Warren County Airport/John Lane Field (8 nm S)
KMWO - Middletown Regional Airport/Hook Field (9 nm SW)
I19 - Greene County-Lewis A Jackson Regional Airport (12 nm NE)
KFFO - Wright-Patterson Air Force Base (16 nm NE)
I66 - Clinton Field Airport (18 nm E)
KDAY - James M Cox Dayton International Airport (19 nm N)
KHAO - Butler County Regional Airport-Hogan Field (19 nm SW)
 
Loc | Ops | Rwys | IFR | FBO | Links
Com | Nav | Svcs | Stats | Notes
Area around KMGY (Dayton-Wright Brothers Airport)
 
Road maps at: MapQuest Bing Google
 
Aerial photo
WARNING: Photo may not be current or correct
Aerial photo of KMGY (Dayton-Wright Brothers Airport)
Photo taken 25-Oct-2011
looking east.

Do you have a better or more recent aerial photo of Dayton-Wright Brothers Airport that you would like to share? If so, please send us your photo.

 
Sectional chart

 
Airport diagram
CAUTION: Diagram may not be current
Diagram of KMGY (Dayton-Wright Brothers Airport)
 
Airport distance calculator
Flying to Dayton-Wright Brothers Airport? Find the distance to fly.

From to KMGY

Sunrise and sunset
Times for 24-Aug-2019
 Local
(UTC-4)
 Zulu
(UTC)
Morning civil twilight06:3010:30
Sunrise06:5910:59
Sunset20:2000:20
Evening civil twilight20:4800:48

Current date and time
Zulu (UTC)  24-Aug-2019 05:23:15
Local (UTC-4)  24-Aug-2019 01:23:15
 
METAR
KMGY 240453Z AUTO 06003KT 10SM CLR 16/11 A3019 RMK AO2 SLP219 T01610106 402500161
KI68 
8nm S 
240455Z AUTO 06008KT 10SM CLR 16/14 A3019 RMK AO1 T01580135 402390157
KMWO 
9nm SW 
240455Z AUTO 00000KT 10SM CLR 14/12 A3020 RMK AO2 T01400121
KFFO 
16nm NE 
240456Z AUTO 00000KT 10SM CLR 15/11 A3020 RMK AO2 SLP227 T01470109 402420140
KDAY 
19nm N 
240456Z 05004KT 10SM CLR 15/11 A3021 RMK AO2 SLP226 T01500106 402560150
KHAO 
19nm SW 
240453Z AUTO 00000KT 10SM CLR 14/13 A3019 RMK AO2 SLP222 T01390133 402440139
TAF
KFFO 
16nm NE 
240300Z 2403/2509 06006KT 9999 FEW060 QNH3014INS BECMG 2414/2415 06010G15KT 9999 FEW050 QNH3013INS BECMG 2420/2421 06009KT 9999 FEW030 QNH3014INS TX24/2420Z TN11/2405Z
KDAY 
19nm N 
231720Z 2318/2418 05012KT P6SM FEW035 SCT250 FM240000 05006KT P6SM SKC FM241500 06012KT P6SM SCT050
NOTAMs
Click for the latest NOTAMs
NOTAMs are issued by the DoD/FAA and will open in a separate window not controlled by AirNav.

 

 
 

FBO, Fuel Providers, and Aircraft Ground Support

  
 Business Name 
 
 Contact 
 
 Services / Description 
 
Fuel Prices
 
Comments
  
Aviation Sales Inc. UNICOM 122.80
937-885-3662
[web site]
[email]
Aviation fuel, Oxygen service, Aircraft parking (ramp or tiedown), Hangars, GPU / Power cart, Passenger terminal and lounge, ...
More info and photos of Aviation Sales Inc.
 
AirBoss™ fuel program   Avfuel Training System   Avfuel Contract Fuel   Everest Fuel   AVTRIP   Courtesy car  
 
Avfuel
100LL Jet A
FS $5.07 $4.20 
GUARANTEED
AirBossMEMBERS
ONLY
Discounts
LoginJoin
 
   4 read write
First Flight Aviation UNICOM 122.80
937-885-5580
937-313-6573
[web site]
[email]
First Flight Aviation is a FAA Certified Repair Station (GA5R-876M) and full service FBO. We are certified for maintenance on Piston, Turboprop and Jet Aircraft. Our objective is to make owning any aircraft the most satisfying experience in aviation. Overnight heated hangar space available!
More info and photos of First Flight Aviation
 
AirBoss™ fuel program   CAA Preferred FBO   UVair   Bravo Rewards   Crew car   FAA-Approved Repair Station   Cirrus  
 
EPIC
100LL Jet A
FS $4.99 $4.13 
GUARANTEED
AirBossMEMBERS
ONLY
Discounts
LoginJoin
 
   5 read write
FS=Full service
Update Fuel Prices
 

Would you like to see your business listed on this page?

 If your business provides an interesting product or service to pilots, flight crews, aircraft, or users of the Dayton-Wright Brothers Airport, you should consider listing it here.  To start the listing process, click on the button below
 
Add a business
 

Other Pages about Dayton-Wright Brothers Airport

Update a link
 
Copyright © AirNav, LLC. All rights reserved. Privacy Policy  Contact